createdAt,value
2018-09-12T00:00:34.836Z,16.13
2018-09-12T00:03:09.649Z,16.18
2018-09-12T00:05:44.340Z,16.21
2018-09-12T00:08:19.164Z,16.22
2018-09-12T00:10:54.311Z,16.17
2018-09-12T00:13:29.111Z,16.16
2018-09-12T00:16:03.404Z,16.12
2018-09-12T00:18:38.184Z,16.15
2018-09-12T00:21:12.537Z,16.13
2018-09-12T00:23:47.287Z,16.12
2018-09-12T00:26:21.933Z,16.14
2018-09-12T00:28:56.344Z,16.11
2018-09-12T00:31:30.648Z,16.12
2018-09-12T00:34:05.301Z,16.07
2018-09-12T00:36:39.712Z,16.05
2018-09-12T00:39:14.015Z,16.03
2018-09-12T00:41:48.437Z,16.02
2018-09-12T00:44:23.643Z,16.03
2018-09-12T00:46:58.534Z,15.96
2018-09-12T00:49:33.187Z,15.89
2018-09-12T00:52:10.491Z,15.84
2018-09-12T00:54:44.989Z,15.79
2018-09-12T00:57:21.637Z,15.79
2018-09-12T00:59:56.402Z,15.78
2018-09-12T01:02:31.124Z,15.71
2018-09-12T01:05:05.592Z,15.67
2018-09-12T01:07:40.027Z,15.65
2018-09-12T01:10:14.799Z,15.63
2018-09-12T01:12:49.673Z,15.59
2018-09-12T01:15:24.228Z,15.60
2018-09-12T01:17:58.908Z,15.58
2018-09-12T01:20:33.368Z,15.59
2018-09-12T01:23:07.880Z,15.61
2018-09-12T01:25:42.425Z,15.67
2018-09-12T01:28:17.107Z,15.66
2018-09-12T01:30:51.520Z,15.67
2018-09-12T01:33:26.065Z,15.67
2018-09-12T01:36:00.512Z,15.65
2018-09-12T01:38:35.485Z,15.62
2018-09-12T01:41:09.815Z,15.65
2018-09-12T01:43:44.229Z,15.67
2018-09-12T01:46:18.760Z,15.62
2018-09-12T01:48:53.157Z,15.58
2018-09-12T01:51:27.495Z,15.55
2018-09-12T01:54:01.803Z,15.57
2018-09-12T01:56:36.085Z,15.57
2018-09-12T01:59:11.148Z,15.57
2018-09-12T02:01:46.188Z,15.58
2018-09-12T02:04:20.447Z,15.54
2018-09-12T02:06:55.044Z,15.48
2018-09-12T02:09:29.712Z,15.40
2018-09-12T02:12:04.682Z,15.39
2018-09-12T02:14:39.448Z,15.38
2018-09-12T02:17:13.955Z,15.35
2018-09-12T02:19:48.288Z,15.35
2018-09-12T02:22:22.584Z,15.33
2018-09-12T02:24:57.377Z,15.28
2018-09-12T02:27:32.160Z,15.29
2018-09-12T02:30:06.729Z,15.28
2018-09-12T02:32:41.257Z,15.27
2018-09-12T02:35:15.965Z,15.27
2018-09-12T02:37:50.361Z,15.24
2018-09-12T02:40:24.936Z,15.19
2018-09-12T02:42:59.356Z,15.18
2018-09-12T02:45:33.644Z,15.16
2018-09-12T02:48:08.109Z,15.13
2018-09-12T02:50:42.765Z,15.13
2018-09-12T02:53:17.312Z,15.12
2018-09-12T02:55:51.704Z,15.09
2018-09-12T02:58:26.200Z,15.01
2018-09-12T03:01:00.636Z,14.97
2018-09-12T03:03:35.033Z,14.95
2018-09-12T03:06:09.504Z,14.92
2018-09-12T03:08:43.768Z,14.91
2018-09-12T03:11:18.543Z,14.92
2018-09-12T03:13:53.417Z,14.91
2018-09-12T03:16:27.841Z,14.90
2018-09-12T03:19:02.465Z,14.86
2018-09-12T03:21:36.756Z,14.87
2018-09-12T03:24:11.164Z,14.85
2018-09-12T03:26:45.604Z,14.83
2018-09-12T03:29:20.192Z,14.76
2018-09-12T03:31:55.336Z,14.75
2018-09-12T03:34:30.509Z,14.71
2018-09-12T03:37:04.791Z,14.74
2018-09-12T03:39:39.873Z,14.70
2018-09-12T03:42:14.471Z,14.67
2018-09-12T03:44:48.892Z,14.61
2018-09-12T03:47:23.395Z,14.62
2018-09-12T03:49:58.088Z,14.65
2018-09-12T03:52:32.533Z,14.70
2018-09-12T03:55:07.280Z,14.65
2018-09-12T03:57:42.131Z,14.64
2018-09-12T04:00:17.368Z,14.54
2018-09-12T04:02:52.438Z,14.53
2018-09-12T04:05:27.664Z,14.53
2018-09-12T04:08:02.169Z,14.51
2018-09-12T04:10:36.799Z,14.47
2018-09-12T04:13:11.251Z,14.44
2018-09-12T04:15:45.845Z,14.40
2018-09-12T04:18:20.624Z,14.39
2018-09-12T04:20:55.188Z,14.30
2018-09-12T04:23:30.072Z,14.29
2018-09-12T04:26:05.571Z,14.24
2018-09-12T04:28:40.456Z,14.23
2018-09-12T04:31:14.986Z,14.18
2018-09-12T04:33:49.624Z,14.16
2018-09-12T04:36:27.198Z,14.10
2018-09-12T04:39:03.446Z,14.14
2018-09-12T04:41:40.357Z,14.15
2018-09-12T04:44:15.372Z,14.12
2018-09-12T04:46:50.309Z,14.08
2018-09-12T04:49:25.477Z,14.03
2018-09-12T04:52:00.243Z,14.01
2018-09-12T04:54:34.643Z,14.00
2018-09-12T04:57:09.329Z,13.98
2018-09-12T04:59:44.125Z,14.03
2018-09-12T05:02:18.940Z,13.99
2018-09-12T05:04:53.860Z,14.01
2018-09-12T05:07:28.270Z,14.01
2018-09-12T05:10:03.648Z,14.06
2018-09-12T05:12:38.277Z,14.08
2018-09-12T05:15:12.739Z,14.06
2018-09-12T05:17:47.225Z,14.06
2018-09-12T05:20:21.656Z,14.10
2018-09-12T05:22:56.302Z,14.12
2018-09-12T05:25:31.184Z,14.14
2018-09-12T05:28:06.091Z,14.18
2018-09-12T05:30:40.787Z,14.18
2018-09-12T05:33:15.213Z,14.20
2018-09-12T05:35:50.475Z,14.27
2018-09-12T05:38:25.204Z,14.31
2018-09-12T05:41:00.194Z,14.36
2018-09-12T05:43:34.736Z,14.39
2018-09-12T05:46:09.235Z,14.49
2018-09-12T05:48:43.778Z,14.55
2018-09-12T05:51:18.462Z,14.63
2018-09-12T05:53:53.228Z,14.66
2018-09-12T05:56:27.791Z,14.71
2018-09-12T05:59:02.316Z,14.79
2018-09-12T06:01:36.903Z,14.85
2018-09-12T06:04:11.652Z,14.94
2018-09-12T06:06:46.272Z,15.02
2018-09-12T06:09:21.088Z,15.12
2018-09-12T06:11:55.573Z,15.24
2018-09-12T06:14:30.416Z,15.32
2018-09-12T06:17:04.968Z,15.46
2018-09-12T06:19:39.520Z,15.57
2018-09-12T06:22:16.105Z,15.60
2018-09-12T06:24:51.579Z,15.68
2018-09-12T06:27:26.703Z,15.78
2018-09-12T06:30:01.855Z,15.91
2018-09-12T06:32:36.819Z,16.06
2018-09-12T06:35:11.541Z,16.18
2018-09-12T06:37:46.266Z,16.30
2018-09-12T06:40:21.044Z,16.42
2018-09-12T06:42:56.000Z,16.52
2018-09-12T06:45:31.017Z,16.65
2018-09-12T06:48:05.887Z,16.79
2018-09-12T06:50:40.620Z,16.93
2018-09-12T06:53:15.811Z,17.02
2018-09-12T06:55:50.232Z,17.03
2018-09-12T06:58:24.501Z,17.16
2018-09-12T07:00:58.831Z,17.33
2018-09-12T07:03:34.494Z,17.49
2018-09-12T07:06:09.229Z,17.60
2018-09-12T07:08:43.672Z,17.58
2018-09-12T07:11:18.256Z,17.61
2018-09-12T07:13:52.602Z,17.73
2018-09-12T07:16:27.436Z,17.85
2018-09-12T07:19:02.351Z,18.00
2018-09-12T07:21:37.265Z,18.20
2018-09-12T07:24:11.819Z,18.28
2018-09-12T07:26:46.639Z,18.41
2018-09-12T07:29:21.583Z,18.51
2018-09-12T07:31:55.892Z,18.58
2018-09-12T07:34:30.237Z,18.68
2018-09-12T07:37:04.760Z,18.88
2018-09-12T07:39:39.384Z,19.04
2018-09-12T07:42:14.000Z,19.20
2018-09-12T07:44:48.475Z,19.33
2018-09-12T07:47:22.983Z,19.40
2018-09-12T07:49:57.600Z,19.60
2018-09-12T07:52:31.897Z,19.77
2018-09-12T07:55:07.141Z,19.91
2018-09-12T07:57:47.719Z,20.11
2018-09-12T08:00:22.315Z,20.28
2018-09-12T08:02:57.111Z,20.50
2018-09-12T08:05:31.964Z,20.80
2018-09-12T08:08:06.959Z,21.08
2018-09-12T08:10:41.712Z,21.15
2018-09-12T08:13:16.008Z,21.28
2018-09-12T08:15:50.786Z,21.55
2018-09-12T08:18:25.492Z,21.86
2018-09-12T08:20:59.847Z,22.02
2018-09-12T08:23:34.101Z,22.19
2018-09-12T08:26:09.271Z,22.43
2018-09-12T08:28:43.842Z,22.69
2018-09-12T08:31:18.605Z,22.95
2018-09-12T08:33:53.184Z,23.10
2018-09-12T08:36:27.685Z,23.42
2018-09-12T08:39:02.637Z,23.70
2018-09-12T08:41:37.184Z,23.95
2018-09-12T08:44:11.569Z,24.22
2018-09-12T08:46:46.412Z,24.43
2018-09-12T08:49:20.877Z,24.68
2018-09-12T08:51:55.351Z,24.78
2018-09-12T08:54:29.726Z,24.98
2018-09-12T08:57:04.373Z,25.29
2018-09-12T08:59:38.846Z,25.67
2018-09-12T09:02:13.184Z,25.70
2018-09-12T09:04:48.183Z,25.85
2018-09-12T09:07:22.937Z,26.12
2018-09-12T09:09:57.282Z,26.25
2018-09-12T09:12:31.584Z,26.27
2018-09-12T09:15:06.427Z,26.44
2018-09-12T09:17:41.299Z,26.59
2018-09-12T09:20:16.252Z,26.59
2018-09-12T09:22:50.712Z,26.66
2018-09-12T09:25:25.239Z,26.70
2018-09-12T09:27:59.596Z,26.91
2018-09-12T09:30:34.569Z,27.26
2018-09-12T09:33:09.147Z,27.60
2018-09-12T09:35:43.660Z,27.79
2018-09-12T09:38:18.536Z,27.90
2018-09-12T09:40:52.894Z,28.06
2018-09-12T09:43:27.330Z,28.20
2018-09-12T09:46:02.432Z,28.28
2018-09-12T09:48:37.283Z,28.32
2018-09-12T09:51:12.042Z,28.27
2018-09-12T09:53:47.256Z,28.39
2018-09-12T09:56:22.379Z,28.57
2018-09-12T09:58:57.406Z,28.63
2018-09-12T10:01:37.326Z,28.72
2018-09-12T10:04:16.161Z,28.96
2018-09-12T10:06:55.788Z,28.89
2018-09-12T10:09:31.024Z,28.95
2018-09-12T10:12:05.723Z,29.09
2018-09-12T10:14:40.333Z,29.20
2018-09-12T10:17:14.874Z,29.34
2018-09-12T10:19:49.704Z,29.35
2018-09-12T10:22:24.291Z,29.62
2018-09-12T10:24:58.952Z,29.81
2018-09-12T10:27:33.761Z,29.86
2018-09-12T10:30:09.160Z,30.07
2018-09-12T10:32:43.768Z,30.18
2018-09-12T10:35:18.305Z,30.12
2018-09-12T10:37:54.980Z,30.04
2018-09-12T10:40:29.626Z,29.83
2018-09-12T10:43:07.837Z,29.69
2018-09-12T10:45:42.741Z,29.84
2018-09-12T10:48:17.344Z,30.00
2018-09-12T10:50:52.549Z,30.14
2018-09-12T10:53:27.021Z,30.22
2018-09-12T10:56:01.891Z,30.39
2018-09-12T10:58:36.420Z,30.50
2018-09-12T11:01:11.985Z,30.76
2018-09-12T11:03:46.459Z,31.00
2018-09-12T11:06:21.671Z,31.14
2018-09-12T11:08:59.403Z,31.11
2018-09-12T11:11:34.312Z,30.71
2018-09-12T11:14:10.096Z,30.22
2018-09-12T11:16:44.649Z,30.20
2018-09-12T11:19:20.722Z,30.18
2018-09-12T11:21:55.965Z,30.16
2018-09-12T11:24:30.673Z,30.00
2018-09-12T11:27:07.537Z,29.88
2018-09-12T11:29:42.000Z,29.94
2018-09-12T11:32:16.485Z,29.85
2018-09-12T11:34:50.927Z,30.18
2018-09-12T11:37:25.524Z,30.36
2018-09-12T11:40:00.668Z,30.68
2018-09-12T11:42:36.018Z,30.75
2018-09-12T11:45:10.431Z,31.02
2018-09-12T11:47:45.414Z,31.17
2018-09-12T11:50:20.416Z,31.17
2018-09-12T11:52:55.183Z,31.28
2018-09-12T11:55:29.651Z,30.82
2018-09-12T11:58:04.723Z,30.53
2018-09-12T12:00:39.292Z,30.82
2018-09-12T12:03:13.679Z,31.00
2018-09-12T12:05:48.124Z,31.28
2018-09-12T12:08:22.740Z,31.48
2018-09-12T12:10:57.439Z,31.28
2018-09-12T12:13:32.313Z,31.37
2018-09-12T12:16:07.012Z,31.11
2018-09-12T12:18:41.703Z,31.13
2018-09-12T12:21:16.186Z,31.40
2018-09-12T12:23:50.748Z,31.36
2018-09-12T12:26:25.196Z,31.27
2018-09-12T12:28:59.604Z,31.11
2018-09-12T12:31:34.475Z,31.34
2018-09-12T12:34:09.275Z,31.41
2018-09-12T12:36:43.636Z,31.62
2018-09-12T12:39:18.390Z,31.77
2018-09-12T12:41:53.013Z,31.75
2018-09-12T12:44:27.852Z,31.77
2018-09-12T12:47:02.381Z,31.62
2018-09-12T12:49:38.352Z,31.80
2018-09-12T12:52:13.192Z,31.97
2018-09-12T12:54:49.819Z,32.15
2018-09-12T12:57:24.529Z,32.24
2018-09-12T12:59:59.471Z,32.47
2018-09-12T13:02:34.420Z,32.38
2018-09-12T13:05:09.533Z,32.38
2018-09-12T13:07:44.165Z,32.16
2018-09-12T13:10:19.124Z,31.96
2018-09-12T13:12:53.704Z,31.70
2018-09-12T13:15:28.731Z,31.52
2018-09-12T13:18:03.173Z,31.41
2018-09-12T13:20:37.903Z,31.37
2018-09-12T13:23:12.274Z,31.59
2018-09-12T13:25:46.848Z,31.69
2018-09-12T13:28:21.570Z,31.28
2018-09-12T13:30:56.203Z,31.03
2018-09-12T13:33:31.059Z,30.86
2018-09-12T13:36:05.815Z,30.35
2018-09-12T13:38:40.207Z,30.40
2018-09-12T13:41:15.227Z,30.52
2018-09-12T13:43:49.781Z,30.54
2018-09-12T13:46:24.668Z,30.65
2018-09-12T13:48:59.654Z,30.85
2018-09-12T13:51:34.404Z,31.03
2018-09-12T13:54:08.921Z,31.04
2018-09-12T13:56:43.539Z,31.30
2018-09-12T13:59:18.150Z,31.65
2018-09-12T14:01:53.207Z,31.58
2018-09-12T14:04:27.472Z,31.59
2018-09-12T14:07:01.976Z,31.74
2018-09-12T14:09:36.862Z,31.84
2018-09-12T14:12:11.528Z,31.80
2018-09-12T14:14:45.923Z,31.71
2018-09-12T14:17:20.439Z,31.54
2018-09-12T14:19:55.184Z,31.45
2018-09-12T14:22:29.931Z,31.51
2018-09-12T14:25:04.332Z,31.51
2018-09-12T14:27:39.147Z,31.60
2018-09-12T14:30:13.644Z,31.42
2018-09-12T14:32:48.200Z,31.12
2018-09-12T14:35:22.623Z,31.12
2018-09-12T14:37:57.041Z,31.22
2018-09-12T14:40:31.669Z,31.16
2018-09-12T14:43:06.609Z,31.30
2018-09-12T14:45:41.563Z,31.06
2018-09-12T14:48:16.082Z,31.05
2018-09-12T14:50:51.084Z,30.86
2018-09-12T14:53:25.731Z,30.68
2018-09-12T14:56:00.699Z,30.66
2018-09-12T14:58:35.491Z,30.88
2018-09-12T15:01:10.216Z,30.64
2018-09-12T15:03:44.852Z,30.72
2018-09-12T15:06:19.312Z,30.75
2018-09-12T15:08:53.725Z,30.83
2018-09-12T15:11:28.463Z,30.82
2018-09-12T15:14:03.454Z,30.85
2018-09-12T15:16:38.035Z,30.84
2018-09-12T15:19:12.671Z,30.78
2018-09-12T15:21:47.160Z,30.65
2018-09-12T15:24:22.660Z,30.53
2018-09-12T15:26:57.156Z,30.34
2018-09-12T15:29:31.868Z,30.37
2018-09-12T15:32:06.604Z,30.03
2018-09-12T15:34:41.760Z,30.14
2018-09-12T15:37:16.254Z,30.23
2018-09-12T15:39:51.614Z,30.07
2018-09-12T15:42:26.268Z,29.99
2018-09-12T15:45:00.984Z,29.92
2018-09-12T15:47:35.877Z,29.82
2018-09-12T15:50:10.473Z,29.88
2018-09-12T15:52:44.874Z,29.91
2018-09-12T15:55:19.377Z,29.99
2018-09-12T15:57:53.883Z,29.75
2018-09-12T16:00:28.905Z,29.63
2018-09-12T16:03:03.593Z,29.64
2018-09-12T16:05:38.613Z,29.48
2018-09-12T16:08:13.265Z,29.33
2018-09-12T16:10:48.065Z,29.12
2018-09-12T16:13:23.286Z,28.89
2018-09-12T16:16:00.836Z,28.45
2018-09-12T16:18:35.773Z,28.15
2018-09-12T16:21:10.799Z,27.96
2018-09-12T16:23:45.432Z,27.94
2018-09-12T16:26:20.580Z,27.66
2018-09-12T16:28:54.964Z,27.64
2018-09-12T16:31:29.640Z,27.48
2018-09-12T16:34:04.328Z,27.34
2018-09-12T16:36:39.193Z,27.27
2018-09-12T16:39:14.059Z,27.11
2018-09-12T16:41:48.946Z,27.01
2018-09-12T16:44:23.380Z,26.94
2018-09-12T16:46:57.665Z,26.85
2018-09-12T16:49:31.944Z,26.67
2018-09-12T16:52:06.591Z,26.53
2018-09-12T16:54:41.046Z,26.39
2018-09-12T16:57:15.481Z,26.33
2018-09-12T16:59:50.122Z,26.20
2018-09-12T17:02:24.538Z,26.10
2018-09-12T17:04:58.967Z,26.00
2018-09-12T17:07:33.377Z,25.90
2018-09-12T17:10:07.739Z,25.78
2018-09-12T17:12:42.579Z,25.65
2018-09-12T17:15:17.019Z,25.40
2018-09-12T17:17:51.859Z,25.26
2018-09-12T17:20:26.349Z,25.05
2018-09-12T17:23:01.398Z,24.92
2018-09-12T17:25:36.060Z,24.77
2018-09-12T17:28:11.458Z,24.62
2018-09-12T17:30:46.327Z,24.43
2018-09-12T17:33:20.772Z,24.36
2018-09-12T17:35:55.455Z,24.33
2018-09-12T17:38:29.980Z,24.27
2018-09-12T17:41:04.235Z,24.14
2018-09-12T17:43:38.685Z,24.15
2018-09-12T17:46:13.503Z,24.01
2018-09-12T17:48:47.980Z,23.84
2018-09-12T17:51:22.428Z,23.66
2018-09-12T17:53:56.895Z,23.53
2018-09-12T17:56:31.515Z,23.45
2018-09-12T17:59:06.694Z,23.34
2018-09-12T18:01:41.279Z,23.18
2018-09-12T18:04:15.748Z,23.10
2018-09-12T18:06:50.156Z,23.02
2018-09-12T18:09:24.525Z,22.98
2018-09-12T18:11:59.024Z,22.93
2018-09-12T18:14:34.000Z,22.88
2018-09-12T18:17:08.525Z,22.92
2018-09-12T18:19:43.273Z,22.80
2018-09-12T18:22:17.720Z,22.70
2018-09-12T18:24:52.484Z,22.60
2018-09-12T18:27:27.150Z,22.59
2018-09-12T18:30:01.596Z,22.61
2018-09-12T18:32:36.015Z,22.44
2018-09-12T18:35:10.869Z,22.35
2018-09-12T18:37:45.627Z,22.27
2018-09-12T18:40:20.309Z,22.16
2018-09-12T18:42:54.653Z,22.04
2018-09-12T18:45:29.677Z,21.99
2018-09-12T18:48:04.373Z,21.95
2018-09-12T18:50:41.170Z,21.84
2018-09-12T18:53:16.217Z,21.77
2018-09-12T18:55:50.731Z,21.71
2018-09-12T18:58:25.048Z,21.64
2018-09-12T19:00:59.851Z,21.60
2018-09-12T19:03:34.265Z,21.55
2018-09-12T19:06:08.717Z,21.45
2018-09-12T19:08:42.992Z,21.41
2018-09-12T19:11:17.736Z,21.34
2018-09-12T19:13:52.146Z,21.38
2018-09-12T19:16:26.600Z,21.34
2018-09-12T19:19:02.538Z,21.20
2018-09-12T19:21:37.003Z,21.09
2018-09-12T19:24:11.467Z,20.99
2018-09-12T19:26:45.892Z,20.92
2018-09-12T19:29:20.182Z,20.92
2018-09-12T19:31:54.942Z,20.86
2018-09-12T19:34:29.396Z,20.79
2018-09-12T19:37:03.720Z,20.71
2018-09-12T19:39:38.353Z,20.65
2018-09-12T19:42:12.833Z,20.55
2018-09-12T19:44:47.823Z,20.47
2018-09-12T19:47:22.772Z,20.43
2018-09-12T19:49:57.943Z,20.39
2018-09-12T19:52:32.544Z,20.33
2018-09-12T19:55:07.599Z,20.26
2018-09-12T19:57:43.571Z,20.22
2018-09-12T20:00:19.617Z,20.14
2018-09-12T20:02:54.440Z,20.10
2018-09-12T20:05:29.751Z,20.06
2018-09-12T20:08:04.404Z,20.06
2018-09-12T20:10:39.075Z,20.04
2018-09-12T20:13:13.820Z,20.03
2018-09-12T20:15:59.121Z,20.05
2018-09-12T20:18:33.901Z,20.04
2018-09-12T20:21:09.333Z,20.04
2018-09-12T20:23:43.921Z,19.99
2018-09-12T20:26:19.620Z,20.01
2018-09-12T20:28:54.193Z,19.97
2018-09-12T20:31:28.539Z,19.95
2018-09-12T20:34:03.558Z,19.97
2018-09-12T20:36:38.258Z,20.02
2018-09-12T20:39:13.059Z,19.99
2018-09-12T20:41:47.708Z,19.99
2018-09-12T20:44:22.195Z,19.96
2018-09-12T20:46:56.634Z,20.04
2018-09-12T20:49:31.561Z,20.06
2018-09-12T20:52:06.718Z,20.02
2018-09-12T20:54:41.313Z,20.05
2018-09-12T20:57:15.987Z,20.02
2018-09-12T20:59:51.284Z,19.98
2018-09-12T21:02:27.320Z,19.96
2018-09-12T21:05:03.295Z,19.92
2018-09-12T21:07:38.267Z,19.91
2018-09-12T21:10:13.244Z,19.91
2018-09-12T21:12:47.690Z,19.91
2018-09-12T21:15:22.229Z,19.87
2018-09-12T21:17:56.664Z,19.81
2018-09-12T21:20:32.187Z,19.81
2018-09-12T21:23:07.051Z,19.82
2018-09-12T21:25:41.466Z,19.78
2018-09-12T21:28:16.189Z,19.77
2018-09-12T21:30:50.629Z,19.78
2018-09-12T21:33:25.281Z,19.73
2018-09-12T21:35:59.603Z,19.73
2018-09-12T21:38:33.927Z,19.69
2018-09-12T21:41:08.333Z,19.66
2018-09-12T21:43:42.709Z,19.70
2018-09-12T21:46:17.443Z,19.68
2018-09-12T21:48:52.035Z,19.67
2018-09-12T21:51:26.516Z,19.64
2018-09-12T21:54:02.011Z,19.57
2018-09-12T21:56:36.803Z,19.53
2018-09-12T21:59:11.417Z,19.48
2018-09-12T22:01:45.781Z,19.46
2018-09-12T22:04:20.236Z,19.40
2018-09-12T22:06:55.340Z,19.40
2018-09-12T22:09:29.839Z,19.32
2018-09-12T22:12:07.068Z,19.30
2018-09-12T22:14:41.692Z,19.24
2018-09-12T22:17:16.426Z,19.23
2018-09-12T22:19:51.063Z,19.19
2018-09-12T22:22:25.441Z,19.17
2018-09-12T22:25:00.340Z,19.17
2018-09-12T22:27:35.570Z,19.21
2018-09-12T22:30:10.488Z,19.20
2018-09-12T22:32:47.196Z,19.16
2018-09-12T22:35:25.547Z,19.14
2018-09-12T22:38:00.894Z,19.10
2018-09-12T22:40:35.492Z,19.09
2018-09-12T22:43:10.388Z,19.19
2018-09-12T22:45:45.300Z,19.15
2018-09-12T22:48:19.844Z,19.08
2018-09-12T22:50:54.288Z,19.00
2018-09-12T22:53:31.416Z,18.95
2018-09-12T22:56:11.754Z,18.90
2018-09-12T22:58:48.493Z,18.84
2018-09-12T23:01:25.290Z,18.85
2018-09-12T23:04:00.245Z,18.77
2018-09-12T23:06:34.684Z,18.75
2018-09-12T23:09:09.999Z,18.80
2018-09-12T23:11:44.419Z,18.78
2018-09-12T23:14:19.240Z,18.75
2018-09-12T23:16:57.676Z,18.70
2018-09-12T23:19:32.655Z,18.65
2018-09-12T23:22:07.141Z,18.59
2018-09-12T23:24:41.629Z,18.48
2018-09-12T23:30:12.852Z,18.34
2018-09-12T23:32:47.873Z,18.33
2018-09-12T23:35:22.399Z,18.33
2018-09-12T23:37:56.872Z,18.43
2018-09-12T23:40:31.343Z,18.45
2018-09-12T23:43:06.200Z,18.38
2018-09-12T23:45:40.528Z,18.29
2018-09-12T23:48:15.184Z,18.26
2018-09-12T23:50:49.466Z,18.19
2018-09-12T23:53:24.143Z,18.13
2018-09-12T23:55:58.951Z,18.13
2018-09-12T23:58:33.643Z,18.11
